createdAt,value
2023-03-11T00:00:56.612Z,20.14
2023-03-11T00:03:24.893Z,20.10
2023-03-11T00:05:56.297Z,20.10
2023-03-11T00:08:25.135Z,20.05
2023-03-11T00:10:55.535Z,20.05
2023-03-11T00:13:23.379Z,20.00
2023-03-11T00:15:56.010Z,20.03
2023-03-11T00:18:26.985Z,20.02
2023-03-11T00:20:55.394Z,19.99
2023-03-11T00:23:22.414Z,19.98
2023-03-11T00:25:49.539Z,19.99
2023-03-11T00:28:17.175Z,20.00
2023-03-11T00:30:46.185Z,20.00
2023-03-11T00:33:15.648Z,20.01
2023-03-11T00:35:44.069Z,20.00
2023-03-11T00:38:15.526Z,19.99
2023-03-11T00:40:43.627Z,19.97
2023-03-11T00:43:10.621Z,19.96
2023-03-11T00:45:37.759Z,19.96
2023-03-11T00:48:04.848Z,19.89
2023-03-11T00:50:35.049Z,19.92
2023-03-11T00:53:03.094Z,19.92
2023-03-11T00:55:32.450Z,19.91
2023-03-11T00:58:04.091Z,19.87
2023-03-11T01:00:38.661Z,19.84
2023-03-11T01:03:06.124Z,19.81
2023-03-11T01:05:35.008Z,19.79
2023-03-11T01:08:03.365Z,19.81
2023-03-11T01:10:35.677Z,19.78
2023-03-11T01:13:04.117Z,19.72
2023-03-11T01:15:34.401Z,19.68
2023-03-11T01:18:01.815Z,19.70
2023-03-11T01:20:28.846Z,19.66
2023-03-11T01:22:56.070Z,19.68
2023-03-11T01:25:24.130Z,19.62
2023-03-11T01:27:51.656Z,19.64
2023-03-11T01:30:21.639Z,19.61
2023-03-11T01:32:49.441Z,19.57
2023-03-11T01:35:18.167Z,19.54
2023-03-11T01:37:48.296Z,19.56
2023-03-11T01:40:24.371Z,19.51
2023-03-11T01:42:51.468Z,19.47
2023-03-11T01:45:43.431Z,19.53
2023-03-11T01:48:12.419Z,19.51
2023-03-11T01:50:45.310Z,19.48
2023-03-11T01:53:14.958Z,19.48
2023-03-11T01:55:42.906Z,19.49
2023-03-11T01:58:14.536Z,19.48
2023-03-11T02:00:42.627Z,19.42
2023-03-11T02:03:17.905Z,19.41
2023-03-11T02:05:47.382Z,19.41
2023-03-11T02:08:14.255Z,19.35
2023-03-11T02:10:42.843Z,19.37
2023-03-11T02:13:10.994Z,19.34
2023-03-11T02:15:40.034Z,19.37
2023-03-11T02:18:08.342Z,19.35
2023-03-11T02:21:25.403Z,19.34
2023-03-11T02:24:14.246Z,19.26
2023-03-11T02:27:09.382Z,19.23
2023-03-11T02:29:37.762Z,19.25
2023-03-11T02:32:08.979Z,19.22
2023-03-11T02:34:40.445Z,19.18
2023-03-11T02:37:10.623Z,19.21
2023-03-11T02:39:44.124Z,19.23
2023-03-11T02:42:15.739Z,19.21
2023-03-11T02:44:46.328Z,19.16
2023-03-11T02:47:13.646Z,19.15
2023-03-11T02:49:40.719Z,19.18
2023-03-11T02:52:07.765Z,19.21
2023-03-11T02:54:34.679Z,19.16
2023-03-11T02:57:01.712Z,19.15
2023-03-11T02:59:28.623Z,19.13
2023-03-11T03:01:56.492Z,19.15
2023-03-11T03:04:23.502Z,19.12
2023-03-11T03:06:50.460Z,19.16
2023-03-11T03:09:17.946Z,19.14
2023-03-11T03:11:44.926Z,19.14
2023-03-11T03:14:11.881Z,19.10
2023-03-11T03:16:39.226Z,19.10
2023-03-11T03:19:06.141Z,19.08
2023-03-11T03:21:33.194Z,19.08
2023-03-11T03:24:00.262Z,19.05
2023-03-11T03:26:27.180Z,19.10
2023-03-11T03:28:54.166Z,19.05
2023-03-11T03:31:21.394Z,19.04
2023-03-11T03:33:48.298Z,19.03
2023-03-11T03:36:16.466Z,19.03
2023-03-11T03:38:47.986Z,19.00
2023-03-11T03:41:18.357Z,19.02
2023-03-11T03:43:45.603Z,18.99
2023-03-11T03:46:13.483Z,18.97
2023-03-11T03:48:44.744Z,18.95
2023-03-11T03:51:16.068Z,18.95
2023-03-11T03:53:55.540Z,18.93
2023-03-11T03:56:25.240Z,18.91
2023-03-11T03:58:53.797Z,18.92
2023-03-11T04:01:22.533Z,18.89
2023-03-11T04:03:49.589Z,18.88
2023-03-11T04:06:19.617Z,18.87
2023-03-11T04:08:52.213Z,18.82
2023-03-11T04:11:21.348Z,18.85
2023-03-11T04:13:48.521Z,18.88
2023-03-11T04:16:20.077Z,18.82
2023-03-11T04:18:48.281Z,18.83
2023-03-11T04:21:15.550Z,18.81
2023-03-11T04:23:42.952Z,18.77
2023-03-11T04:26:11.437Z,18.77
2023-03-11T04:28:38.694Z,18.73
2023-03-11T04:31:05.889Z,18.69
2023-03-11T04:33:34.056Z,18.68
2023-03-11T04:36:05.882Z,18.66
2023-03-11T04:38:34.958Z,18.65
2023-03-11T04:41:03.657Z,18.60
2023-03-11T04:43:31.660Z,18.64
2023-03-11T04:45:58.643Z,18.66
2023-03-11T04:48:27.669Z,18.61
2023-03-11T04:50:55.721Z,18.65
2023-03-11T04:53:24.070Z,18.62
2023-03-11T04:55:52.474Z,18.65
2023-03-11T04:58:20.649Z,18.66
2023-03-11T05:00:48.502Z,18.67
2023-03-11T05:03:15.967Z,18.59
2023-03-11T05:05:43.080Z,18.54
2023-03-11T05:08:10.505Z,18.52
2023-03-11T05:10:37.715Z,18.56
2023-03-11T05:13:06.485Z,18.55
2023-03-11T05:15:37.652Z,18.52
2023-03-11T05:18:06.585Z,18.57
2023-03-11T05:20:35.889Z,18.56
2023-03-11T05:23:03.925Z,18.58
2023-03-11T05:25:33.030Z,18.57
2023-03-11T05:28:00.184Z,18.53
2023-03-11T05:30:27.551Z,18.55
2023-03-11T05:32:56.416Z,18.56
2023-03-11T05:35:24.207Z,18.58
2023-03-11T05:37:51.239Z,18.59
2023-03-11T05:40:19.421Z,18.57
2023-03-11T05:42:47.315Z,18.58
2023-03-11T05:45:16.212Z,18.59
2023-03-11T05:47:45.803Z,18.59
2023-03-11T05:50:14.846Z,18.58
2023-03-11T05:52:44.031Z,18.55
2023-03-11T05:55:12.526Z,18.55
2023-03-11T05:57:41.542Z,18.58
2023-03-11T06:00:12.583Z,18.59
2023-03-11T06:02:47.726Z,18.57
2023-03-11T06:05:17.912Z,18.58
2023-03-11T06:07:47.524Z,18.58
2023-03-11T06:10:14.490Z,18.61
2023-03-11T06:12:42.135Z,18.64
2023-03-11T06:15:17.987Z,18.69
2023-03-11T06:17:45.001Z,18.71
2023-03-11T06:20:12.780Z,18.75
2023-03-11T06:22:40.959Z,18.77
2023-03-11T06:25:09.382Z,18.85
2023-03-11T06:27:37.934Z,18.89
2023-03-11T06:30:07.283Z,18.80
2023-03-11T06:32:40.719Z,18.92
2023-03-11T06:35:08.684Z,18.99
2023-03-11T06:37:39.143Z,19.02
2023-03-11T06:40:08.022Z,19.02
2023-03-11T06:42:35.743Z,19.05
2023-03-11T06:45:04.156Z,19.19
2023-03-11T06:47:31.095Z,19.23
2023-03-11T06:49:58.033Z,19.36
2023-03-11T06:52:27.292Z,19.56
2023-03-11T06:54:55.728Z,19.72
2023-03-11T06:57:22.832Z,19.82
2023-03-11T06:59:52.240Z,19.90
2023-03-11T07:02:19.534Z,19.80
2023-03-11T07:04:49.627Z,20.03
2023-03-11T07:07:18.652Z,20.34
2023-03-11T07:09:45.628Z,20.73
2023-03-11T07:12:15.047Z,20.96
2023-03-11T07:14:42.575Z,20.87
2023-03-11T07:17:09.724Z,20.69
2023-03-11T07:19:43.448Z,20.62
2023-03-11T07:22:10.452Z,20.51
2023-03-11T07:24:37.309Z,20.36
2023-03-11T07:27:04.409Z,20.15
2023-03-11T07:29:31.316Z,20.09
2023-03-11T07:31:58.480Z,20.01
2023-03-11T07:34:25.479Z,19.96
2023-03-11T07:36:52.448Z,20.09
2023-03-11T07:39:20.134Z,19.91
2023-03-11T07:41:47.660Z,20.08
2023-03-11T07:44:16.963Z,20.15
2023-03-11T07:46:44.528Z,20.12
2023-03-11T07:49:11.682Z,20.06
2023-03-11T07:51:41.142Z,20.14
2023-03-11T07:54:08.433Z,20.16
2023-03-11T07:56:35.786Z,20.24
2023-03-11T07:59:04.237Z,20.20
2023-03-11T08:01:36.772Z,20.29
2023-03-11T08:04:05.749Z,20.40
2023-03-11T08:06:34.054Z,20.35
2023-03-11T08:09:03.457Z,20.40
2023-03-11T08:11:31.662Z,20.34
2023-03-11T08:13:59.153Z,20.34
2023-03-11T08:16:27.185Z,20.32
2023-03-11T08:18:54.686Z,20.32
2023-03-11T08:21:25.541Z,20.48
2023-03-11T08:23:53.311Z,20.70
2023-03-11T08:26:24.495Z,20.88
2023-03-11T08:28:51.401Z,20.93
2023-03-11T08:31:21.500Z,21.04
2023-03-11T08:33:52.876Z,21.06
2023-03-11T08:36:21.202Z,21.09
2023-03-11T08:38:48.444Z,21.20
2023-03-11T08:41:15.849Z,21.26
2023-03-11T08:43:44.641Z,21.34
2023-03-11T08:46:22.813Z,21.33
2023-03-11T08:48:49.869Z,21.42
2023-03-11T08:51:17.001Z,21.51
2023-03-11T08:53:43.968Z,21.55
2023-03-11T08:56:11.082Z,21.59
2023-03-11T08:58:38.123Z,21.59
2023-03-11T09:01:06.845Z,21.63
2023-03-11T09:03:35.718Z,22.50
2023-03-11T09:06:06.070Z,24.74
2023-03-11T09:08:33.747Z,26.73
2023-03-11T09:11:00.880Z,28.12
2023-03-11T09:13:28.248Z,29.77
2023-03-11T09:15:55.536Z,31.33
2023-03-11T09:18:22.819Z,32.27
2023-03-11T09:20:50.223Z,32.59
2023-03-11T09:23:18.366Z,32.67
2023-03-11T09:25:45.259Z,33.46
2023-03-11T09:28:12.203Z,33.73
2023-03-11T09:30:39.269Z,34.35
2023-03-11T09:33:06.229Z,35.05
2023-03-11T09:35:33.530Z,35.58
2023-03-11T09:38:00.857Z,36.29
2023-03-11T09:40:42.345Z,35.04
2023-03-11T09:43:17.041Z,34.63
2023-03-11T09:45:59.066Z,33.69
2023-03-11T09:48:44.120Z,33.79
2023-03-11T09:51:22.318Z,32.67
2023-03-11T09:53:55.574Z,31.56
2023-03-11T09:56:23.281Z,30.57
2023-03-11T09:59:00.094Z,29.55
2023-03-11T10:01:45.126Z,29.36
2023-03-11T10:04:18.927Z,30.02
2023-03-11T10:06:47.804Z,30.99
2023-03-11T10:09:33.629Z,32.02
2023-03-11T10:12:11.281Z,32.92
2023-03-11T10:15:06.073Z,33.10
2023-03-11T10:17:42.131Z,32.23
2023-03-11T10:20:13.166Z,32.16
2023-03-11T10:23:08.173Z,31.66
2023-03-11T10:25:49.311Z,30.99
2023-03-11T10:28:18.950Z,30.55
2023-03-11T10:30:45.772Z,30.09
2023-03-11T10:33:28.980Z,29.96
2023-03-11T10:36:03.245Z,29.68
2023-03-11T10:38:46.674Z,29.38
2023-03-11T10:41:20.498Z,29.24
2023-03-11T10:44:13.505Z,29.08
2023-03-11T10:46:40.493Z,29.13
2023-03-11T10:49:25.553Z,29.60
2023-03-11T10:51:55.528Z,30.25
2023-03-11T10:54:44.053Z,31.73
2023-03-11T10:57:20.072Z,33.08
2023-03-11T10:59:50.959Z,34.19
2023-03-11T11:02:28.915Z,35.00
2023-03-11T11:05:27.566Z,35.72
2023-03-11T11:08:17.193Z,35.99
2023-03-11T11:10:52.091Z,36.25
2023-03-11T11:13:22.488Z,36.31
2023-03-11T11:15:55.630Z,36.51
2023-03-11T11:18:49.459Z,36.53
2023-03-11T11:21:38.558Z,36.41
2023-03-11T11:24:35.211Z,35.99
2023-03-11T11:27:26.769Z,36.16
2023-03-11T11:30:15.318Z,36.18
2023-03-11T11:32:42.444Z,35.69
2023-03-11T11:35:17.180Z,35.59
2023-03-11T11:37:47.945Z,35.15
2023-03-11T11:40:14.924Z,34.57
2023-03-11T11:42:49.085Z,34.11
2023-03-11T11:45:37.382Z,33.62
2023-03-11T11:48:31.485Z,32.95
2023-03-11T11:51:02.321Z,32.56
2023-03-11T11:53:44.361Z,32.09
2023-03-11T11:56:11.331Z,31.82
2023-03-11T11:58:41.019Z,31.26
2023-03-11T12:01:14.187Z,30.90
2023-03-11T12:03:50.069Z,30.47
2023-03-11T12:06:39.817Z,30.02
2023-03-11T12:09:11.587Z,29.73
2023-03-11T12:11:49.300Z,29.46
2023-03-11T12:14:35.273Z,29.44
2023-03-11T12:17:05.048Z,29.35
2023-03-11T12:19:54.217Z,29.33
2023-03-11T12:22:42.944Z,29.17
2023-03-11T12:25:34.391Z,28.92
2023-03-11T12:28:12.607Z,28.72
2023-03-11T12:30:45.603Z,28.63
2023-03-11T12:33:31.181Z,28.43
2023-03-11T12:36:00.600Z,28.34
2023-03-11T12:38:39.413Z,28.30
2023-03-11T12:41:31.868Z,28.07
2023-03-11T12:44:01.412Z,27.90
2023-03-11T12:46:54.506Z,27.82
2023-03-11T12:49:27.295Z,27.83
2023-03-11T12:52:13.898Z,27.78
2023-03-11T12:54:49.270Z,27.71
2023-03-11T12:57:16.138Z,27.41
2023-03-11T13:00:19.650Z,27.55
2023-03-11T13:02:55.527Z,27.64
2023-03-11T13:05:37.877Z,27.55
2023-03-11T13:08:17.686Z,27.53
2023-03-11T13:10:46.655Z,27.53
2023-03-11T13:13:23.560Z,27.46
2023-03-11T13:15:51.041Z,27.46
2023-03-11T13:18:30.484Z,27.37
2023-03-11T13:21:01.823Z,27.41
2023-03-11T13:23:34.197Z,27.45
2023-03-11T13:26:09.942Z,27.50
2023-03-11T13:28:45.888Z,27.52
2023-03-11T13:31:47.155Z,27.45
2023-03-11T13:34:38.647Z,27.50
2023-03-11T13:37:36.343Z,27.52
2023-03-11T13:40:14.188Z,27.35
2023-03-11T13:42:50.810Z,27.29
2023-03-11T13:45:30.461Z,27.37
2023-03-11T13:48:01.575Z,27.39
2023-03-11T13:50:35.910Z,27.32
2023-03-11T13:53:08.042Z,27.27
2023-03-11T13:55:40.386Z,27.26
2023-03-11T13:58:20.002Z,27.20
2023-03-11T14:00:50.078Z,27.18
2023-03-11T14:03:23.165Z,27.12
2023-03-11T14:05:57.299Z,27.09
2023-03-11T14:08:31.753Z,27.08
2023-03-11T14:11:03.570Z,26.92
2023-03-11T14:13:50.007Z,26.95
2023-03-11T14:16:43.946Z,26.97
2023-03-11T14:19:16.748Z,26.92
2023-03-11T14:21:46.011Z,26.90
2023-03-11T14:24:23.495Z,26.83
2023-03-11T14:26:58.669Z,26.81
2023-03-11T14:29:33.332Z,26.84
2023-03-11T14:32:00.940Z,26.82
2023-03-11T14:34:30.109Z,26.77
2023-03-11T14:37:02.133Z,26.82
2023-03-11T14:39:31.812Z,26.76
2023-03-11T14:42:04.826Z,26.77
2023-03-11T14:44:35.556Z,26.86
2023-03-11T14:47:22.342Z,26.98
2023-03-11T14:49:50.947Z,27.01
2023-03-11T14:52:25.492Z,27.05
2023-03-11T14:54:54.249Z,27.06
2023-03-11T14:57:33.335Z,27.10
2023-03-11T15:00:00.804Z,27.13
2023-03-11T15:02:45.234Z,27.20
2023-03-11T15:05:22.395Z,27.20
2023-03-11T15:07:56.852Z,27.20
2023-03-11T15:10:23.890Z,27.16
2023-03-11T15:12:50.869Z,27.16
2023-03-11T15:15:26.948Z,27.15
2023-03-11T15:17:56.723Z,27.16
2023-03-11T15:20:35.411Z,27.23
2023-03-11T15:23:05.428Z,27.31
2023-03-11T15:25:35.319Z,27.32
2023-03-11T15:28:25.377Z,27.36
2023-03-11T15:31:38.160Z,27.40
2023-03-11T15:34:18.144Z,27.38
2023-03-11T15:36:47.860Z,27.29
2023-03-11T15:39:26.831Z,27.30
2023-03-11T15:42:13.710Z,27.23
2023-03-11T15:44:52.736Z,27.22
2023-03-11T15:47:23.662Z,27.18
2023-03-11T15:49:51.295Z,27.15
2023-03-11T15:52:22.037Z,27.10
2023-03-11T15:54:55.469Z,27.07
2023-03-11T15:57:26.704Z,26.99
2023-03-11T15:59:56.630Z,26.55
2023-03-11T16:02:26.910Z,25.40
2023-03-11T16:04:55.477Z,24.79
2023-03-11T16:07:38.082Z,24.01
2023-03-11T16:10:08.024Z,23.81
2023-03-11T16:12:35.465Z,23.85
2023-03-11T16:15:02.588Z,23.30
2023-03-11T16:17:43.042Z,22.41
2023-03-11T16:20:15.898Z,22.08
2023-03-11T16:22:42.809Z,22.03
2023-03-11T16:25:26.126Z,22.09
2023-03-11T16:27:56.384Z,21.44
2023-03-11T16:30:25.544Z,21.44
2023-03-11T16:32:52.614Z,21.17
2023-03-11T16:35:20.003Z,21.02
2023-03-11T16:37:47.331Z,20.96
2023-03-11T16:40:26.766Z,20.89
2023-03-11T16:43:14.089Z,20.64
2023-03-11T16:45:41.111Z,20.43
2023-03-11T16:48:08.081Z,20.14
2023-03-11T16:50:37.340Z,20.50
2023-03-11T16:53:05.250Z,20.68
2023-03-11T16:55:32.435Z,20.61
2023-03-11T16:57:59.464Z,20.68
2023-03-11T17:00:27.012Z,20.13
2023-03-11T17:02:54.244Z,19.85
2023-03-11T17:05:21.791Z,20.09
2023-03-11T17:07:52.452Z,19.85
2023-03-11T17:10:19.369Z,19.70
2023-03-11T17:12:46.383Z,19.69
2023-03-11T17:15:13.422Z,19.71
2023-03-11T17:17:40.322Z,19.47
2023-03-11T17:20:09.051Z,19.44
2023-03-11T17:22:36.102Z,19.27
2023-03-11T17:25:03.829Z,19.13
2023-03-11T17:27:32.814Z,19.21
2023-03-11T17:30:01.949Z,19.50
2023-03-11T17:32:29.401Z,19.52
2023-03-11T17:34:56.628Z,19.63
2023-03-11T17:37:23.726Z,19.29
2023-03-11T17:39:50.770Z,19.18
2023-03-11T17:42:17.851Z,18.96
2023-03-11T17:44:51.720Z,19.07
2023-03-11T17:47:20.195Z,18.79
2023-03-11T17:49:49.498Z,18.98
2023-03-11T17:52:16.642Z,19.13
2023-03-11T17:54:44.119Z,19.20
2023-03-11T17:57:11.354Z,19.28
2023-03-11T17:59:38.448Z,19.13
2023-03-11T18:02:05.592Z,18.85
2023-03-11T18:04:32.531Z,18.93
2023-03-11T18:06:59.525Z,18.75
2023-03-11T18:09:26.606Z,18.76
2023-03-11T18:11:54.432Z,18.69
2023-03-11T18:14:21.265Z,18.57
2023-03-11T18:16:48.285Z,18.59
2023-03-11T18:19:15.313Z,18.59
2023-03-11T18:21:42.231Z,18.50
2023-03-11T18:24:09.195Z,18.52
2023-03-11T18:26:36.108Z,18.40
2023-03-11T18:29:03.219Z,18.54
2023-03-11T18:31:31.098Z,18.48
2023-03-11T18:34:01.036Z,18.54
2023-03-11T18:36:33.612Z,18.49
2023-03-11T18:39:01.608Z,18.39
2023-03-11T18:41:31.998Z,18.38
2023-03-11T18:43:59.466Z,18.45
2023-03-11T18:46:29.380Z,18.44
2023-03-11T18:48:57.713Z,18.42
2023-03-11T18:51:28.590Z,18.33
2023-03-11T18:53:55.681Z,18.39
2023-03-11T18:56:22.768Z,18.39
2023-03-11T18:58:49.743Z,18.33
2023-03-11T19:01:19.122Z,18.28
2023-03-11T19:03:54.609Z,18.21
2023-03-11T19:06:23.363Z,18.17
2023-03-11T19:08:51.126Z,18.11
2023-03-11T19:11:20.855Z,18.32
2023-03-11T19:13:48.358Z,18.14
2023-03-11T19:16:18.525Z,18.34
2023-03-11T19:18:46.586Z,18.47
2023-03-11T19:21:15.654Z,18.38
2023-03-11T19:23:43.106Z,18.40
2023-03-11T19:26:10.334Z,18.26
2023-03-11T19:28:37.299Z,18.28
2023-03-11T19:31:05.449Z,18.29
2023-03-11T19:33:32.768Z,18.25
2023-03-11T19:36:01.924Z,18.27
2023-03-11T19:38:29.783Z,18.21
2023-03-11T19:41:07.905Z,18.29
2023-03-11T19:43:35.894Z,18.26
2023-03-11T19:46:07.721Z,18.23
2023-03-11T19:48:35.753Z,18.23
2023-03-11T19:51:02.793Z,18.25
2023-03-11T19:53:30.028Z,18.28
2023-03-11T19:55:58.496Z,18.30
2023-03-11T19:58:30.120Z,18.24
2023-03-11T20:00:58.879Z,18.26
2023-03-11T20:03:26.344Z,18.31
2023-03-11T20:05:56.781Z,18.40
2023-03-11T20:08:25.655Z,18.35
2023-03-11T20:10:53.489Z,18.33
2023-03-11T20:13:22.159Z,18.45
2023-03-11T20:15:49.800Z,18.49
2023-03-11T20:18:18.045Z,18.53
2023-03-11T20:20:45.409Z,18.61
2023-03-11T20:23:12.689Z,18.65
2023-03-11T20:25:41.127Z,18.76
2023-03-11T20:28:08.694Z,18.82
2023-03-11T20:30:38.672Z,18.80
2023-03-11T20:33:06.489Z,18.83
2023-03-11T20:35:34.105Z,18.84
2023-03-11T20:38:02.867Z,18.81
2023-03-11T20:40:30.428Z,18.87
2023-03-11T20:42:57.441Z,18.89
2023-03-11T20:45:24.391Z,18.93
2023-03-11T20:47:53.763Z,18.87
2023-03-11T20:50:21.737Z,18.84
2023-03-11T20:52:48.925Z,18.82
2023-03-11T20:55:16.458Z,18.90
2023-03-11T20:57:43.581Z,18.94
2023-03-11T21:00:12.435Z,18.93
2023-03-11T21:02:41.329Z,18.96
2023-03-11T21:05:09.301Z,18.85
2023-03-11T21:07:36.518Z,18.91
2023-03-11T21:10:09.540Z,18.98
2023-03-11T21:12:36.655Z,18.96
2023-03-11T21:15:04.938Z,18.98
2023-03-11T21:17:33.060Z,18.96
2023-03-11T21:19:59.987Z,18.95
2023-03-11T21:22:27.025Z,18.94
2023-03-11T21:24:55.198Z,18.93
2023-03-11T21:27:26.603Z,18.93
2023-03-11T21:29:57.268Z,18.95
2023-03-11T21:32:26.137Z,19.00
2023-03-11T21:35:00.441Z,19.05
2023-03-11T21:37:32.235Z,19.06
2023-03-11T21:39:59.381Z,19.03
2023-03-11T21:42:30.213Z,19.07
2023-03-11T21:44:57.429Z,19.11
2023-03-11T21:47:24.459Z,19.12
2023-03-11T21:49:51.483Z,19.11
2023-03-11T21:52:18.484Z,19.08
2023-03-11T21:54:45.429Z,19.11
2023-03-11T21:57:12.629Z,19.11
2023-03-11T21:59:39.590Z,19.13
2023-03-11T22:02:06.790Z,19.14
2023-03-11T22:04:33.793Z,19.13
2023-03-11T22:07:00.911Z,19.14
2023-03-11T22:09:28.048Z,19.11
2023-03-11T22:11:56.331Z,19.11
2023-03-11T22:14:24.132Z,19.13
2023-03-11T22:16:51.605Z,19.08
2023-03-11T22:19:18.661Z,19.05
2023-03-11T22:21:45.586Z,19.03
2023-03-11T22:24:12.445Z,19.02
2023-03-11T22:26:39.438Z,19.02
2023-03-11T22:29:08.850Z,19.00
2023-03-11T22:31:36.417Z,19.00
2023-03-11T22:34:03.362Z,18.99
2023-03-11T22:36:30.264Z,18.95
2023-03-11T22:38:57.186Z,18.94
2023-03-11T22:41:24.269Z,18.92
2023-03-11T22:43:51.227Z,18.91
2023-03-11T22:46:18.298Z,18.91
2023-03-11T22:48:45.219Z,18.87
2023-03-11T22:51:13.066Z,18.87
2023-03-11T22:53:40.137Z,18.84
2023-03-11T22:56:12.094Z,18.80
2023-03-11T22:58:39.894Z,18.75
2023-03-11T23:01:07.044Z,18.72
2023-03-11T23:03:35.378Z,18.70
2023-03-11T23:06:05.741Z,18.68
2023-03-11T23:08:33.173Z,18.64
2023-03-11T23:11:06.024Z,18.62
2023-03-11T23:13:35.623Z,18.58
2023-03-11T23:16:08.628Z,18.60
2023-03-11T23:18:36.468Z,18.52
2023-03-11T23:21:04.225Z,18.48
2023-03-11T23:23:31.436Z,18.50
2023-03-11T23:25:58.345Z,18.51
2023-03-11T23:28:25.262Z,18.42
2023-03-11T23:30:52.305Z,18.39
2023-03-11T23:33:19.277Z,18.39
2023-03-11T23:35:46.198Z,18.40
2023-03-11T23:38:13.120Z,18.38
2023-03-11T23:40:41.017Z,18.37
2023-03-11T23:43:07.912Z,18.38
2023-03-11T23:45:34.830Z,18.36
2023-03-11T23:48:01.950Z,18.35
2023-03-11T23:50:28.781Z,18.34
2023-03-11T23:52:55.709Z,18.34
2023-03-11T23:55:22.586Z,18.32
2023-03-11T23:57:49.521Z,18.30
